Time;durP1;ratioP1;P1;durP2;ratioP2;P2;SDS_P1;SDS_P2;PMS_P1;PMS_P2;Temp;Humidity;BMP_temperature;BMP_pressure;BME280_temperature;BME280_humidity;BME280_pressure;Samples;Min_cycle;Max_cycle;Signal;HPM_P1;HPM_P2
2023/01/15 00:01:04;;;;;;;15.32;3.78;;;8.50;79.40;;;;;;5017019;28;20218;-77
2023/01/15 00:03:30;;;;;;;15.40;3.33;;;8.50;79.40;;;;;;5009861;28;20030;-76
2023/01/15 00:06:00;;;;;;;10.85;2.75;;;8.50;79.10;;;;;;5016276;28;20109;-76
2023/01/15 00:08:25;;;;;;;20.08;2.97;;;8.50;79.10;;;;;;5006028;28;20030;-77
2023/01/15 00:10:51;;;;;;;13.20;3.40;;;8.50;78.70;;;;;;5000517;28;20026;-76
2023/01/15 00:13:17;;;;;;;12.45;2.80;;;8.50;78.50;;;;;;4996270;28;20160;-76
2023/01/15 00:15:42;;;;;;;10.15;2.63;;;8.50;78.40;;;;;;5000478;28;20031;-76
2023/01/15 00:18:08;;;;;;;14.30;2.70;;;8.50;78.40;;;;;;4998145;28;20531;-77
2023/01/15 00:20:34;;;;;;;15.07;3.03;;;8.40;78.20;;;;;;5004778;28;20022;-77
2023/01/15 00:23:00;;;;;;;17.08;3.25;;;8.40;78.40;;;;;;4996402;28;20029;-77
2023/01/15 00:28:13;;;;;;;11.23;3.03;;;8.40;77.90;;;;;;5014536;28;20067;-76
2023/01/15 00:30:41;;;;;;;12.75;2.58;;;8.40;78.00;;;;;;5014719;28;21018;-76
2023/01/15 00:33:08;;;;;;;12.02;3.05;;;8.40;78.20;;;;;;4995630;28;20023;-76
2023/01/15 00:35:34;;;;;;;12.55;3.97;;;8.40;77.60;;;;;;4997020;28;20558;-76
2023/01/15 00:38:00;;;;;;;12.75;3.53;;;8.40;77.10;;;;;;5009197;28;20026;-75
2023/01/15 00:40:25;;;;;;;13.55;3.20;;;8.40;76.90;;;;;;4994069;28;20030;-76
2023/01/15 00:42:51;;;;;;;13.43;3.10;;;8.40;77.00;;;;;;5002785;28;20031;-76
2023/01/15 00:45:17;;;;;;;11.82;2.67;;;8.40;77.00;;;;;;4997444;28;20026;-76
2023/01/15 00:47:44;;;;;;;14.85;2.88;;;8.30;76.30;;;;;;5010568;28;20055;-76
2023/01/15 00:50:12;;;;;;;12.55;3.15;;;8.40;76.00;;;;;;5011751;28;20018;-76
2023/01/15 00:52:39;;;;;;;14.88;3.17;;;8.40;75.70;;;;;;5010745;28;20052;-76
2023/01/15 00:55:06;;;;;;;12.93;2.70;;;8.30;76.10;;;;;;5004457;28;20087;-76
2023/01/15 00:57:32;;;;;;;12.73;2.55;;;8.30;76.50;;;;;;4998099;28;20113;-76
2023/01/15 00:59:57;;;;;;;13.68;3.03;;;8.30;76.40;;;;;;5013813;28;20112;-75
2023/01/15 01:02:23;;;;;;;14.60;3.20;;;8.30;76.40;;;;;;5015491;28;20045;-75
2023/01/15 01:04:49;;;;;;;12.48;2.80;;;8.20;76.30;;;;;;5005622;28;20049;-76
2023/01/15 01:07:14;;;;;;;14.30;3.90;;;8.20;76.20;;;;;;5006485;28;20048;-77
2023/01/15 01:09:40;;;;;;;12.88;3.67;;;8.20;76.60;;;;;;5014779;28;20097;-78
2023/01/15 01:12:06;;;;;;;17.15;3.78;;;8.20;76.70;;;;;;5005310;28;20085;-77
2023/01/15 01:14:31;;;;;;;16.00;4.03;;;8.20;77.00;;;;;;5002629;28;20234;-76
2023/01/15 01:16:57;;;;;;;12.85;3.13;;;8.10;77.10;;;;;;5002573;28;20389;-77
2023/01/15 01:19:24;;;;;;;15.60;3.03;;;8.10;77.30;;;;;;5010167;28;20727;-76
2023/01/15 01:21:50;;;;;;;10.00;2.65;;;8.10;77.40;;;;;;5003830;28;20566;-77
2023/01/15 01:24:21;;;;;;;12.05;3.08;;;8.10;77.60;;;;;;4994768;28;20104;-76
2023/01/15 01:26:48;;;;;;;12.73;3.65;;;8.10;77.60;;;;;;5015678;28;20025;-76
2023/01/15 01:29:17;;;;;;;13.18;3.35;;;8.10;77.80;;;;;;4996718;28;20045;-77
2023/01/15 01:31:43;;;;;;;15.35;3.35;;;8.10;77.90;;;;;;5005076;28;20390;-78
2023/01/15 01:34:10;;;;;;;17.10;3.45;;;8.10;77.90;;;;;;4999631;28;20185;-77
2023/01/15 01:36:38;;;;;;;15.93;4.05;;;8.10;77.90;;;;;;4997486;28;20033;-77
2023/01/15 01:39:05;;;;;;;12.82;3.00;;;8.10;78.00;;;;;;4994951;28;20072;-77
2023/01/15 01:41:31;;;;;;;14.48;3.22;;;8.10;78.00;;;;;;5005087;28;20402;-76
2023/01/15 01:43:57;;;;;;;10.80;2.60;;;8.00;78.30;;;;;;5003263;28;20095;-76
2023/01/15 01:46:24;;;;;;;17.65;3.35;;;8.00;78.10;;;;;;5001946;28;20038;-77
2023/01/15 01:49:07;;;;;;;12.32;2.80;;;8.00;78.20;;;;;;5001065;28;20364;-77
2023/01/15 01:51:38;;;;;;;14.20;3.28;;;8.00;78.40;;;;;;5001712;28;20048;-76
2023/01/15 01:54:05;;;;;;;13.60;2.72;;;8.00;78.30;;;;;;5010460;28;20553;-77
2023/01/15 01:56:34;;;;;;;16.08;3.10;;;8.00;78.40;;;;;;5002192;28;20057;-76
2023/01/15 01:59:01;;;;;;;18.77;3.53;;;8.00;78.20;;;;;;5000780;28;20022;-76
2023/01/15 02:01:27;;;;;;;12.80;2.95;;;8.00;78.30;;;;;;5003491;28;20145;-77
2023/01/15 02:03:53;;;;;;;17.00;3.15;;;7.90;78.30;;;;;;5010266;28;20104;-76
2023/01/15 02:06:19;;;;;;;16.52;3.05;;;7.90;78.30;;;;;;4996473;28;20035;-77
2023/01/15 02:08:44;;;;;;;14.73;3.45;;;8.00;78.20;;;;;;5003848;28;20104;-77
2023/01/15 02:11:16;;;;;;;12.15;3.30;;;7.90;78.20;;;;;;4997542;28;20037;-77
2023/01/15 02:13:49;;;;;;;14.40;2.83;;;7.90;78.20;;;;;;5005479;28;20076;-76
2023/01/15 02:16:21;;;;;;;17.13;4.15;;;7.90;78.00;;;;;;5002260;28;20109;-77
2023/01/15 02:19:25;;;;;;;11.98;2.83;;;7.90;78.00;;;;;;5008893;28;20057;-77
2023/01/15 02:21:55;;;;;;;18.05;2.90;;;7.80;77.80;;;;;;4995348;28;20043;-77
2023/01/15 02:24:48;;;;;;;13.80;2.90;;;7.80;77.60;;;;;;4996513;28;20793;-76
2023/01/15 02:27:19;;;;;;;16.83;3.38;;;7.90;77.00;;;;;;5002439;28;20045;-77
2023/01/15 02:30:11;;;;;;;12.95;3.08;;;7.90;76.80;;;;;;5003388;28;20040;-77
2023/01/15 02:32:57;;;;;;;14.52;3.30;;;7.90;76.70;;;;;;5005440;28;20039;-76
2023/01/15 02:35:35;;;;;;;14.10;3.22;;;7.80;76.60;;;;;;4994617;28;20085;-78
2023/01/15 02:38:06;;;;;;;16.15;3.10;;;7.80;76.60;;;;;;5007447;28;20018;-77
2023/01/15 02:40:34;;;;;;;13.60;3.67;;;7.80;76.20;;;;;;4998451;28;20029;-76
2023/01/15 02:43:00;;;;;;;15.75;3.15;;;7.80;76.00;;;;;;5001719;28;20029;-77
2023/01/15 02:45:33;;;;;;;13.15;2.80;;;7.80;75.40;;;;;;5000601;28;20123;-77
2023/01/15 02:48:05;;;;;;;11.80;3.17;;;7.80;75.50;;;;;;5008017;28;20025;-76
2023/01/15 02:50:36;;;;;;;13.07;2.90;;;7.80;75.40;;;;;;5001596;28;20026;-76
2023/01/15 02:53:06;;;;;;;13.15;2.60;;;7.80;75.50;;;;;;4997898;28;20171;-76
2023/01/15 02:55:37;;;;;;;14.50;3.85;;;7.80;75.40;;;;;;5005853;28;20028;-77
2023/01/15 02:58:08;;;;;;;11.10;2.75;;;7.80;75.30;;;;;;5010516;28;20029;-77
2023/01/15 03:00:38;;;;;;;13.68;3.28;;;7.70;75.50;;;;;;5012470;28;20105;-77
2023/01/15 03:03:11;;;;;;;19.15;2.92;;;7.70;75.80;;;;;;5015525;28;20375;-77
2023/01/15 03:05:51;;;;;;;12.00;2.60;;;7.60;76.00;;;;;;5013666;28;20029;-77
2023/01/15 03:08:17;;;;;;;15.88;3.08;;;7.60;76.10;;;;;;5004016;28;20041;-76
2023/01/15 03:10:48;;;;;;;9.63;2.80;;;7.60;76.00;;;;;;5021537;28;20022;-77
2023/01/15 03:13:29;;;;;;;21.85;3.10;;;7.60;76.10;;;;;;5007579;28;20403;-76
2023/01/15 03:19:11;;;;;;;13.93;2.90;;;7.60;76.40;;;;;;5007224;28;20048;-76
2023/01/15 03:21:40;;;;;;;10.30;2.80;;;7.60;76.60;;;;;;4997637;28;20112;-77
2023/01/15 03:24:08;;;;;;;15.77;2.70;;;7.60;76.80;;;;;;5011820;28;20658;-77
2023/01/15 03:26:34;;;;;;;12.40;4.00;;;7.50;77.00;;;;;;5014890;28;20048;-76
2023/01/15 03:29:02;;;;;;;13.63;2.78;;;7.50;77.40;;;;;;5008645;28;20029;-77
2023/01/15 03:31:28;;;;;;;16.30;3.22;;;7.50;77.50;;;;;;5002534;28;20049;-76
2023/01/15 03:33:54;;;;;;;13.32;3.88;;;7.40;78.00;;;;;;4995530;28;20443;-76
2023/01/15 03:36:20;;;;;;;10.10;2.50;;;7.40;78.40;;;;;;5014375;28;20048;-77
2023/01/15 03:38:53;;;;;;;13.93;3.30;;;7.30;79.10;;;;;;4998764;28;20107;-76
2023/01/15 03:41:47;;;;;;;11.87;2.77;;;7.30;79.70;;;;;;5005340;28;20516;-76
2023/01/15 03:44:38;;;;;;;14.10;3.00;;;7.30;80.00;;;;;;5017579;28;20104;-77
2023/01/15 03:47:09;;;;;;;11.10;2.80;;;7.30;80.20;;;;;;5010314;28;20701;-77
2023/01/15 03:49:59;;;;;;;11.75;2.95;;;7.20;80.40;;;;;;5008449;28;20053;-76
2023/01/15 03:52:33;;;;;;;13.25;3.17;;;7.10;80.20;;;;;;5005961;28;20252;-77
2023/01/15 03:55:14;;;;;;;11.50;3.17;;;7.20;80.00;;;;;;5006926;28;20663;-77
2023/01/15 03:57:53;;;;;;;14.25;2.60;;;7.20;79.50;;;;;;4999779;28;20042;-76
2023/01/15 04:00:26;;;;;;;13.68;3.22;;;7.20;79.90;;;;;;5001982;28;20030;-77
2023/01/15 04:02:55;;;;;;;19.73;3.70;;;7.20;80.30;;;;;;4997601;28;20073;-76
2023/01/15 04:05:21;;;;;;;14.18;2.83;;;7.30;80.50;;;;;;4989394;28;20032;-76
2023/01/15 04:07:49;;;;;;;11.75;2.55;;;7.30;80.70;;;;;;5001271;28;20030;-76
2023/01/15 04:10:15;;;;;;;10.43;2.47;;;7.30;80.70;;;;;;5000942;28;20032;-76
2023/01/15 04:12:40;;;;;;;16.48;3.42;;;7.30;80.90;;;;;;5014046;28;20043;-76
2023/01/15 04:15:07;;;;;;;17.63;2.60;;;7.30;81.00;;;;;;5006685;28;20394;-76
2023/01/15 04:17:32;;;;;;;15.18;3.15;;;7.30;81.10;;;;;;4999279;28;20030;-76
2023/01/15 04:19:58;;;;;;;13.98;3.75;;;7.20;81.30;;;;;;5006425;28;20030;-76
2023/01/15 04:22:24;;;;;;;10.40;2.58;;;7.30;81.10;;;;;;5005420;28;20088;-76
2023/01/15 04:24:49;;;;;;;12.93;2.95;;;7.30;80.80;;;;;;5011956;28;20037;-76
2023/01/15 04:27:15;;;;;;;13.55;2.38;;;7.30;80.70;;;;;;5014863;28;20080;-77
2023/01/15 04:29:41;;;;;;;13.30;3.03;;;7.20;80.80;;;;;;4995696;28;20025;-78
2023/01/15 04:32:07;;;;;;;14.68;2.65;;;7.20;80.90;;;;;;4998464;28;20034;-77
2023/01/15 04:34:34;;;;;;;16.00;3.00;;;7.20;80.80;;;;;;4993312;28;20040;-78
2023/01/15 04:37:00;;;;;;;10.10;3.05;;;7.20;80.70;;;;;;4995222;28;20027;-76
2023/01/15 04:39:26;;;;;;;10.18;3.10;;;7.20;80.70;;;;;;5002262;28;20034;-77
2023/01/15 04:44:36;;;;;;;11.88;3.03;;;7.20;80.90;;;;;;4999409;28;20040;-77
2023/01/15 04:47:02;;;;;;;13.05;2.60;;;7.30;80.80;;;;;;4993936;28;20045;-76
2023/01/15 04:49:28;;;;;;;12.60;2.75;;;7.20;81.20;;;;;;4999653;28;20104;-76
2023/01/15 04:51:54;;;;;;;10.40;2.50;;;7.30;81.00;;;;;;4999523;28;20704;-76
2023/01/15 04:54:21;;;;;;;14.52;3.10;;;7.30;81.50;;;;;;5006916;28;20034;-77
2023/01/15 04:56:50;;;;;;;11.75;2.45;;;7.40;82.00;;;;;;5005382;28;20095;-77
2023/01/15 04:59:18;;;;;;;13.75;3.35;;;7.40;82.40;;;;;;5009290;28;20025;-75
2023/01/15 05:01:44;;;;;;;14.65;3.40;;;7.50;82.70;;;;;;4999842;28;20474;-75
2023/01/15 05:04:10;;;;;;;10.93;2.97;;;7.40;83.40;;;;;;5000916;28;20025;-76
2023/01/15 05:06:36;;;;;;;13.90;2.63;;;7.30;82.70;;;;;;4997355;28;20045;-76
2023/01/15 05:09:02;;;;;;;9.77;2.35;;;7.10;81.20;;;;;;5010328;28;20026;-75
2023/01/15 05:11:37;;;;;;;11.90;2.35;;;7.10;82.00;;;;;;5001623;28;20030;-75
2023/01/15 05:14:04;;;;;;;6.45;1.88;;;7.00;82.70;;;;;;5015121;28;20053;-76
2023/01/15 05:16:31;;;;;;;9.02;1.70;;;6.90;82.80;;;;;;5001087;28;20755;-75
2023/01/15 05:18:58;;;;;;;6.82;2.10;;;6.90;83.00;;;;;;5001746;28;20045;-75
2023/01/15 05:21:27;;;;;;;8.75;2.08;;;6.70;82.60;;;;;;5003279;28;20491;-76
2023/01/15 05:23:54;;;;;;;9.02;2.33;;;6.60;83.10;;;;;;4998728;28;20029;-76
2023/01/15 05:26:20;;;;;;;8.25;2.25;;;6.50;83.90;;;;;;5003761;28;20026;-76
2023/01/15 05:28:47;;;;;;;8.77;2.05;;;6.50;84.30;;;;;;5013489;28;20072;-76
2023/01/15 05:31:15;;;;;;;19.88;3.13;;;6.50;84.80;;;;;;5004746;28;20449;-76
2023/01/15 05:33:42;;;;;;;13.27;2.80;;;6.40;85.20;;;;;;5001547;28;20025;-75
2023/01/15 05:36:10;;;;;;;12.02;2.95;;;6.40;85.80;;;;;;5001419;28;20061;-76
2023/01/15 05:38:36;;;;;;;11.60;2.83;;;6.30;86.00;;;;;;5009614;28;20075;-75
2023/01/15 05:41:47;;;;;;;13.38;3.15;;;6.30;86.30;;;;;;5010863;28;20367;-76
2023/01/15 05:44:00;;;;;;;10.57;3.17;;;6.30;86.50;;;;;;5002510;28;20070;-75
2023/01/15 05:46:25;;;;;;;16.00;2.90;;;6.30;86.60;;;;;;4999022;28;20037;-75
2023/01/15 05:48:51;;;;;;;12.02;2.35;;;6.20;86.80;;;;;;5006805;28;20036;-76
2023/01/15 05:51:17;;;;;;;11.57;3.22;;;6.10;87.00;;;;;;5014467;28;20029;-76
2023/01/15 05:53:42;;;;;;;15.77;2.55;;;6.10;87.20;;;;;;4997172;28;20030;-76
2023/01/15 05:56:08;;;;;;;12.43;2.65;;;6.10;87.30;;;;;;5010343;28;20526;-75
2023/01/15 05:58:35;;;;;;;14.38;3.00;;;6.10;87.40;;;;;;4999202;28;20030;-75
2023/01/15 06:01:07;;;;;;;15.15;2.80;;;6.00;87.40;;;;;;5001530;28;20112;-76
2023/01/15 06:03:32;;;;;;;12.25;3.10;;;6.00;87.30;;;;;;5008801;28;20026;-75
2023/01/15 06:05:58;;;;;;;12.05;2.83;;;5.90;87.40;;;;;;5004782;28;20037;-75
2023/01/15 06:08:24;;;;;;;17.23;3.72;;;5.80;87.50;;;;;;4997352;28;20083;-76
2023/01/15 06:10:50;;;;;;;15.45;3.17;;;5.80;87.50;;;;;;4998516;28;20038;-75
2023/01/15 06:13:16;;;;;;;11.18;2.70;;;5.80;87.60;;;;;;5002992;28;20132;-75
2023/01/15 06:15:42;;;;;;;14.90;3.10;;;5.80;87.60;;;;;;4998253;28;20025;-75
2023/01/15 06:18:09;;;;;;;11.90;2.58;;;5.70;87.60;;;;;;4996604;28;20054;-76
2023/01/15 06:20:35;;;;;;;13.20;3.00;;;5.70;87.70;;;;;;4991812;28;20034;-76
2023/01/15 06:23:01;;;;;;;20.42;3.67;;;5.70;87.60;;;;;;4999546;28;20041;-76
2023/01/15 06:25:27;;;;;;;14.00;3.00;;;5.70;87.50;;;;;;5000930;28;20467;-75
2023/01/15 06:27:52;;;;;;;12.38;2.92;;;5.70;87.30;;;;;;4996698;28;20053;-75
2023/01/15 06:30:18;;;;;;;12.88;2.90;;;5.70;87.20;;;;;;4995532;28;20070;-75
2023/01/15 06:32:44;;;;;;;14.35;3.28;;;5.70;87.30;;;;;;4995302;28;20127;-75
2023/01/15 06:35:11;;;;;;;13.10;2.75;;;5.60;87.40;;;;;;5003840;28;20048;-75
2023/01/15 06:37:37;;;;;;;12.27;3.10;;;5.60;87.40;;;;;;5001278;28;20033;-75
2023/01/15 06:40:03;;;;;;;19.00;4.60;;;5.60;87.40;;;;;;5012119;28;20026;-75
2023/01/15 06:47:58;;;;;;;15.27;4.07;;;5.50;87.60;;;;;;5007876;28;20057;-76
2023/01/15 06:50:24;;;;;;;11.05;3.15;;;5.40;87.40;;;;;;5002702;28;20797;-76
2023/01/15 06:52:50;;;;;;;13.45;3.08;;;5.40;87.40;;;;;;5005077;28;20036;-76
2023/01/15 06:55:17;;;;;;;13.20;2.60;;;5.40;87.20;;;;;;5006151;28;20606;-76
2023/01/15 06:57:43;;;;;;;11.70;2.50;;;5.40;87.30;;;;;;5003160;28;20557;-77
2023/01/15 07:00:10;;;;;;;10.98;2.72;;;5.40;87.20;;;;;;4999040;28;20033;-75
2023/01/15 07:02:36;;;;;;;12.15;2.80;;;5.40;87.30;;;;;;4998522;28;20046;-76
2023/01/15 07:05:02;;;;;;;9.00;2.53;;;5.40;87.10;;;;;;5001228;28;20030;-76
2023/01/15 07:07:28;;;;;;;16.67;3.60;;;5.30;86.90;;;;;;5001267;28;20030;-76
2023/01/15 07:09:54;;;;;;;13.30;3.15;;;5.40;86.80;;;;;;4996234;28;20033;-76
2023/01/15 07:12:21;;;;;;;13.63;3.08;;;5.40;86.60;;;;;;5006704;28;20033;-76
2023/01/15 07:14:46;;;;;;;9.25;3.33;;;5.40;86.40;;;;;;5009169;28;20721;-76
2023/01/15 07:17:13;;;;;;;10.98;3.10;;;5.40;86.20;;;;;;5011115;28;20037;-76
2023/01/15 07:19:38;;;;;;;14.45;3.53;;;5.40;86.10;;;;;;5000447;28;20033;-77
2023/01/15 07:22:05;;;;;;;12.85;4.47;;;5.40;85.80;;;;;;5000108;28;20511;-76
2023/01/15 07:24:31;;;;;;;10.02;3.88;;;5.40;85.70;;;;;;5000141;28;20062;-76
2023/01/15 07:26:57;;;;;;;13.02;3.33;;;5.40;85.60;;;;;;5002162;28;20823;-77
2023/01/15 07:29:22;;;;;;;15.27;3.75;;;5.40;85.50;;;;;;4996448;28;20355;-76
2023/01/15 07:31:49;;;;;;;13.30;4.88;;;5.40;85.10;;;;;;4997679;28;20054;-76
2023/01/15 07:34:15;;;;;;;12.32;3.38;;;5.40;84.80;;;;;;4996918;28;20571;-76
2023/01/15 07:36:41;;;;;;;14.13;3.08;;;5.50;84.60;;;;;;5001139;28;20030;-76
2023/01/15 07:39:09;;;;;;;13.10;2.92;;;5.50;84.40;;;;;;5000651;28;20084;-76
2023/01/15 07:49:53;;;;;;;11.15;3.03;;;5.50;83.30;;;;;;5001296;28;20034;-76
2023/01/15 07:52:20;;;;;;;11.95;2.75;;;5.50;83.00;;;;;;5002550;28;20034;-76
2023/01/15 07:54:48;;;;;;;14.27;3.03;;;5.60;82.30;;;;;;5002620;28;20042;-75
2023/01/15 07:57:19;;;;;;;11.55;2.90;;;5.60;82.00;;;;;;5004641;28;20437;-76
2023/01/15 07:59:45;;;;;;;9.65;2.72;;;5.60;81.90;;;;;;4997944;28;20110;-76
2023/01/15 08:02:11;;;;;;;16.83;3.25;;;5.60;81.90;;;;;;4996991;28;20121;-76
2023/01/15 08:04:37;;;;;;;17.75;4.03;;;5.60;81.90;;;;;;4997808;28;20026;-76
2023/01/15 08:07:04;;;;;;;14.02;3.85;;;5.60;81.70;;;;;;5001500;28;20093;-76
2023/01/15 08:09:30;;;;;;;15.32;4.03;;;5.60;81.00;;;;;;4998468;28;20027;-76
2023/01/15 08:17:26;;;;;;;18.23;3.72;;;5.70;80.50;;;;;;5001198;28;20602;-75
2023/01/15 08:19:52;;;;;;;11.55;3.17;;;5.80;80.40;;;;;;5005274;28;20022;-75
2023/01/15 08:22:17;;;;;;;13.38;3.75;;;5.70;80.30;;;;;;4999688;28;21271;-76
2023/01/15 08:24:43;;;;;;;15.60;3.97;;;5.80;80.00;;;;;;5006028;28;20029;-76
2023/01/15 08:27:09;;;;;;;15.73;4.38;;;5.90;79.60;;;;;;5000864;28;20026;-76
2023/01/15 08:29:34;;;;;;;13.80;3.58;;;6.00;79.40;;;;;;4999080;28;20017;-76
2023/01/15 08:32:00;;;;;;;15.75;4.53;;;6.00;78.90;;;;;;4993433;28;20054;-75
2023/01/15 08:34:26;;;;;;;14.85;3.78;;;6.10;79.00;;;;;;5007698;28;20534;-75
2023/01/15 08:36:58;;;;;;;13.55;3.25;;;6.10;78.80;;;;;;4996187;28;20026;-76
2023/01/15 08:39:25;;;;;;;20.90;3.92;;;6.20;78.80;;;;;;5004605;28;20021;-76
2023/01/15 08:41:51;;;;;;;16.58;4.07;;;6.30;78.40;;;;;;4999054;28;20034;-76
2023/01/15 08:44:16;;;;;;;15.68;4.15;;;6.40;78.30;;;;;;5003776;28;20094;-76
2023/01/15 08:46:42;;;;;;;14.52;3.80;;;6.50;78.30;;;;;;4996816;28;20066;-75
2023/01/15 08:49:09;;;;;;;15.32;3.97;;;6.60;78.10;;;;;;4999975;28;20006;-76
2023/01/15 08:51:35;;;;;;;11.63;3.40;;;6.70;77.80;;;;;;4993906;28;20066;-76
2023/01/15 08:54:00;;;;;;;12.60;3.20;;;6.80;77.50;;;;;;5000743;28;20590;-76
2023/01/15 08:56:27;;;;;;;14.05;3.38;;;6.90;77.60;;;;;;4999174;28;20126;-76
2023/01/15 08:58:52;;;;;;;16.08;4.15;;;7.00;76.90;;;;;;4999408;28;20018;-76
2023/01/15 09:01:18;;;;;;;13.65;3.67;;;7.00;76.80;;;;;;4996143;28;20958;-77
2023/01/15 09:03:44;;;;;;;10.63;3.13;;;7.00;77.20;;;;;;5004150;28;20108;-77
2023/01/15 09:06:10;;;;;;;12.25;3.35;;;6.80;77.50;;;;;;4995454;28;20034;-76
2023/01/15 09:08:36;;;;;;;10.32;2.88;;;6.80;77.90;;;;;;4999310;28;20034;-76
2023/01/15 09:11:03;;;;;;;11.82;2.47;;;6.80;78.60;;;;;;5001800;28;20034;-77
2023/01/15 09:13:29;;;;;;;9.20;2.78;;;6.70;79.40;;;;;;5003960;28;20038;-76
2023/01/15 09:16:02;;;;;;;9.38;3.17;;;6.70;79.80;;;;;;5005898;28;20030;-77
2023/01/15 09:18:29;;;;;;;11.00;2.50;;;6.50;80.30;;;;;;5010128;28;20036;-77
2023/01/15 09:20:54;;;;;;;9.23;2.17;;;6.50;80.80;;;;;;5015186;28;20034;-76
2023/01/15 09:23:20;;;;;;;10.23;1.90;;;6.40;80.90;;;;;;4998488;28;20030;-77
2023/01/15 09:25:57;;;;;;;9.57;2.78;;;6.40;81.20;;;;;;5006125;28;20029;-77
2023/01/15 09:28:23;;;;;;;6.90;2.00;;;6.30;81.00;;;;;;5025006;28;20029;-76
2023/01/15 09:30:49;;;;;;;5.15;1.92;;;6.20;81.30;;;;;;5011888;28;20037;-78
2023/01/15 09:33:15;;;;;;;9.13;2.53;;;6.20;81.60;;;;;;5000039;28;20030;-77
2023/01/15 09:35:42;;;;;;;8.07;2.25;;;6.10;81.70;;;;;;4996579;28;20111;-78
2023/01/15 09:38:14;;;;;;;7.35;1.73;;;6.10;81.90;;;;;;5003299;28;20025;-77
2023/01/15 09:40:43;;;;;;;10.55;2.08;;;6.10;82.10;;;;;;5006305;28;20056;-77
2023/01/15 09:43:25;;;;;;;7.95;2.00;;;6.10;82.30;;;;;;4997806;28;20018;-77
2023/01/15 09:45:59;;;;;;;8.02;2.25;;;6.20;82.70;;;;;;5005192;28;20034;-77
2023/01/15 09:48:43;;;;;;;7.53;2.15;;;6.40;82.40;;;;;;4997882;28;20018;-77
2023/01/15 09:51:15;;;;;;;9.55;3.55;;;6.50;81.70;;;;;;4994218;28;20033;-77
2023/01/15 09:54:06;;;;;;;7.60;2.13;;;6.50;81.50;;;;;;4998454;28;20030;-77
2023/01/15 09:56:35;;;;;;;7.80;1.95;;;6.40;81.60;;;;;;4998893;28;20124;-77
2023/01/15 09:59:18;;;;;;;5.78;2.13;;;6.50;81.80;;;;;;4997965;28;20017;-77
2023/01/15 10:01:44;;;;;;;7.85;2.53;;;6.60;81.50;;;;;;5004302;28;20105;-77
2023/01/15 10:04:26;;;;;;;8.07;2.83;;;6.70;81.00;;;;;;5009296;28;20083;-77
2023/01/15 10:07:01;;;;;;;7.93;2.50;;;6.80;80.70;;;;;;4998038;28;20042;-77
2023/01/15 10:09:34;;;;;;;6.68;2.20;;;6.90;80.40;;;;;;5001510;28;20897;-77
2023/01/15 10:15:13;;;;;;;34.95;20.17;;;6.90;80.40;;;;;;4994031;28;20115;-77
2023/01/15 10:17:44;;;;;;;10.68;4.20;;;7.10;80.50;;;;;;4993414;28;20121;-77
2023/01/15 10:20:16;;;;;;;12.30;5.20;;;7.20;79.80;;;;;;4995725;28;20041;-77
2023/01/15 10:23:14;;;;;;;8.88;3.53;;;7.40;79.60;;;;;;4996777;28;20030;-77
2023/01/15 10:25:48;;;;;;;10.32;4.07;;;7.30;79.00;;;;;;4928116;28;20041;-77
2023/01/15 10:28:35;;;;;;;7.90;2.55;;;7.40;78.80;;;;;;5023036;28;20051;-77
2023/01/15 10:31:18;;;;;;;9.15;3.28;;;7.30;79.40;;;;;;5023094;28;20033;-76
2023/01/15 10:33:59;;;;;;;9.25;3.28;;;7.20;79.80;;;;;;5015301;28;20026;-77
2023/01/15 10:36:52;;;;;;;10.85;4.43;;;7.20;79.80;;;;;;5019616;28;20047;-77
2023/01/15 10:39:26;;;;;;;17.15;7.90;;;7.20;79.70;;;;;;5025669;28;20582;-76
2023/01/15 10:42:06;;;;;;;10.07;3.20;;;7.20;80.40;;;;;;5031949;28;20140;-76
2023/01/15 10:44:47;;;;;;;8.98;2.70;;;7.20;80.90;;;;;;5033067;28;20771;-77
2023/01/15 10:47:18;;;;;;;8.60;2.50;;;7.20;81.50;;;;;;5021509;28;20065;-76
2023/01/15 10:49:45;;;;;;;8.68;2.40;;;7.20;81.60;;;;;;5032867;28;20025;-76
2023/01/15 10:52:32;;;;;;;7.20;2.38;;;7.10;81.80;;;;;;5024429;28;20026;-77
2023/01/15 10:55:43;;;;;;;8.25;2.63;;;7.20;81.30;;;;;;5020792;28;20121;-77
2023/01/15 10:58:35;;;;;;;9.82;2.67;;;7.20;81.50;;;;;;5033073;28;20091;-76
2023/01/15 11:01:10;;;;;;;12.52;2.85;;;7.20;81.10;;;;;;5037598;28;20033;-77
2023/01/15 11:03:42;;;;;;;11.77;3.05;;;7.40;81.00;;;;;;5036986;28;20029;-78
2023/01/15 11:06:14;;;;;;;9.50;3.35;;;7.50;80.40;;;;;;5023512;28;20198;-77
2023/01/15 11:08:44;;;;;;;10.20;2.42;;;7.60;80.50;;;;;;5025312;28;20496;-77
2023/01/15 11:19:39;;;;;;;6.75;2.20;;;8.00;78.70;;;;;;5030655;28;20032;-76
2023/01/15 11:22:16;;;;;;;9.40;2.85;;;7.90;79.20;;;;;;5031179;28;20165;-77
2023/01/15 11:24:54;;;;;;;7.35;2.50;;;7.80;79.60;;;;;;5037256;28;20501;-77
2023/01/15 11:27:24;;;;;;;9.18;2.60;;;7.60;79.60;;;;;;5032763;28;20418;-77
2023/01/15 11:29:53;;;;;;;9.57;2.40;;;7.60;80.00;;;;;;5036102;28;20618;-75
2023/01/15 11:32:27;;;;;;;9.35;2.92;;;7.40;80.30;;;;;;5022175;28;20782;-75
2023/01/15 11:34:54;;;;;;;;;;;7.50;80.70;;;;;;5022267;28;20400;-76
2023/01/15 11:37:19;;;;;;;9.70;2.70;;;7.40;81.40;;;;;;5023633;28;19913;-76
2023/01/15 11:39:56;;;;;;;9.32;2.60;;;7.50;81.60;;;;;;5043484;28;20427;-76
2023/01/15 11:51:11;;;;;;;9.98;2.80;;;7.80;80.40;;;;;;5021689;28;20495;-77
2023/01/15 11:53:45;;;;;;;9.20;2.58;;;7.80;79.90;;;;;;5016073;28;20466;-77
2023/01/15 11:56:17;;;;;;;5.50;2.30;;;7.90;79.70;;;;;;5020592;28;20025;-77
2023/01/15 11:58:55;;;;;;;8.60;2.60;;;8.00;79.20;;;;;;5023317;28;20475;-77
2023/01/15 12:01:30;;;;;;;10.20;2.55;;;8.10;78.90;;;;;;5020261;28;20576;-76
2023/01/15 12:03:57;;;;;;;11.55;3.50;;;8.30;78.20;;;;;;5014705;28;20029;-76
2023/01/15 12:06:25;;;;;;;10.68;2.38;;;8.40;78.00;;;;;;5017175;28;20029;-75
2023/01/15 12:09:13;;;;;;;8.48;2.92;;;8.50;76.90;;;;;;5013153;28;20053;-75
2023/01/15 12:12:02;;;;;;;10.68;2.78;;;8.60;76.70;;;;;;5019695;28;20041;-75
2023/01/15 12:14:49;;;;;;;7.55;2.50;;;8.50;76.20;;;;;;5018927;28;20060;-74
2023/01/15 12:17:47;;;;;;;6.32;1.90;;;8.50;76.10;;;;;;5020503;28;20026;-75
2023/01/15 12:20:34;;;;;;;8.48;2.55;;;8.50;76.40;;;;;;5024163;28;20085;-75
2023/01/15 12:23:35;;;;;;;8.43;2.38;;;8.60;76.80;;;;;;4992751;28;20045;-75
2023/01/15 12:26:32;;;;;;;8.35;3.17;;;8.50;76.10;;;;;;4998328;28;20541;-75
2023/01/15 12:29:11;;;;;;;8.77;3.58;;;8.70;76.40;;;;;;4997153;28;20025;-75
2023/01/15 12:31:44;;;;;;;11.38;2.50;;;8.60;75.90;;;;;;4991014;28;20045;-75
2023/01/15 12:34:31;;;;;;;11.50;2.90;;;8.70;75.50;;;;;;4987468;28;20034;-74
2023/01/15 12:37:05;;;;;;;8.60;2.33;;;8.70;75.70;;;;;;4991404;28;20450;-75
2023/01/15 12:39:33;;;;;;;9.43;2.13;;;8.70;75.10;;;;;;4994088;28;20022;-75
2023/01/15 12:44:59;;;;;;;10.30;2.60;;;8.50;75.90;;;;;;4994329;28;20040;-75
2023/01/15 12:47:45;;;;;;;8.60;2.90;;;8.30;75.90;;;;;;5001028;28;20132;-75
2023/01/15 12:50:31;;;;;;;7.55;2.28;;;8.30;76.70;;;;;;4994279;28;20537;-75
2023/01/15 12:53:15;;;;;;;9.05;3.17;;;8.20;76.70;;;;;;4992257;28;20037;-75
2023/01/15 12:55:53;;;;;;;7.55;2.22;;;8.20;77.20;;;;;;4996988;28;20092;-75
2023/01/15 12:58:47;;;;;;;10.98;2.25;;;8.20;77.60;;;;;;4994522;28;20230;-75
2023/01/15 13:01:49;;;;;;;8.35;2.53;;;8.20;77.20;;;;;;4990384;28;20041;-74
2023/01/15 13:04:36;;;;;;;6.20;2.00;;;8.10;77.50;;;;;;4990905;28;20031;-76
2023/01/15 13:07:22;;;;;;;6.28;2.00;;;7.90;77.30;;;;;;4991406;28;20034;-75
2023/01/15 13:10:07;;;;;;;7.35;2.08;;;7.90;77.80;;;;;;5001791;28;20099;-75
2023/01/15 13:12:33;;;;;;;7.18;2.03;;;7.80;78.10;;;;;;4995830;28;20544;-75
2023/01/15 13:15:00;;;;;;;3.70;1.88;;;7.60;78.00;;;;;;4993681;28;20046;-76
2023/01/15 13:17:51;;;;;;;6.35;2.22;;;7.60;78.50;;;;;;4994241;28;20065;-76
2023/01/15 13:20:32;;;;;;;7.72;2.00;;;7.60;78.80;;;;;;4991684;28;20130;-75
2023/01/15 13:23:16;;;;;;;7.80;2.03;;;7.50;79.20;;;;;;4998718;28;20179;-75
2023/01/15 13:26:13;;;;;;;8.10;2.17;;;7.40;79.80;;;;;;4995254;28;20068;-74
2023/01/15 13:29:07;;;;;;;6.07;2.40;;;7.40;80.70;;;;;;4990979;28;20057;-75
2023/01/15 13:31:52;;;;;;;7.25;2.33;;;7.40;82.30;;;;;;4989083;28;20062;-73
2023/01/15 13:34:37;;;;;;;7.68;2.45;;;7.30;83.10;;;;;;4994807;28;20035;-73
2023/01/15 13:37:23;;;;;;;7.22;2.50;;;7.10;83.90;;;;;;4999662;28;20034;-75
2023/01/15 13:39:52;;;;;;;8.98;3.25;;;7.20;83.70;;;;;;4994849;28;20138;-75
2023/01/15 13:42:34;;;;;;;9.05;2.80;;;7.30;84.00;;;;;;4992804;28;20522;-75
2023/01/15 13:45:35;;;;;;;9.07;2.95;;;7.30;83.70;;;;;;4990780;28;20045;-75
2023/01/15 13:48:22;;;;;;;6.90;2.97;;;7.30;83.50;;;;;;4992316;28;20041;-75
2023/01/15 13:50:57;;;;;;;10.52;3.17;;;7.30;83.80;;;;;;4996342;28;20038;-75
2023/01/15 13:53:37;;;;;;;8.18;3.40;;;7.20;83.40;;;;;;4995503;28;20026;-75
2023/01/15 13:56:09;;;;;;;9.98;3.75;;;7.30;83.50;;;;;;5002218;28;20662;-73
2023/01/15 13:58:41;;;;;;;7.18;3.08;;;7.30;83.20;;;;;;4999884;28;20479;-74
2023/01/15 14:01:16;;;;;;;9.98;2.60;;;7.30;83.00;;;;;;4995460;28;20550;-75
2023/01/15 14:03:57;;;;;;;7.13;2.85;;;7.30;83.00;;;;;;4997823;28;20026;-75